Time;durP1;ratioP1;P1;durP2;ratioP2;P2;SDS_P1;SDS_P2;PMS_P1;PMS_P2;Temp;Humidity;BMP_temperature;BMP_pressure;BME280_temperature;BME280_humidity;BME280_pressure;Samples;Min_cycle;Max_cycle;Signal;HPM_P1;HPM_P2
2022/12/01 07:19:12;;;;;;;;;;;;;;;3.97;76.46;98692.34;4969001;23;20051;-65
2022/12/01 07:21:37;;;;;;;18.58;8.57;;;;;;;3.98;76.64;98691.44;4963610;28;19918;-64
2022/12/01 07:24:03;;;;;;;18.10;8.68;;;;;;;4.01;76.57;98689.59;4971104;28;20031;-64
2022/12/01 07:26:28;;;;;;;18.25;8.50;;;;;;;4.02;76.57;98699.06;4972678;28;20026;-66
2022/12/01 07:28:53;;;;;;;18.15;8.55;;;;;;;4.05;76.70;98703.31;4986362;28;20416;-67
2022/12/01 07:31:19;;;;;;;18.77;8.63;;;;;;;4.05;76.49;98698.97;4984506;28;20018;-66
2022/12/01 07:33:44;;;;;;;19.17;9.00;;;;;;;4.11;77.29;98702.28;4972234;28;20493;-67
2022/12/01 07:36:10;;;;;;;17.83;9.00;;;;;;;4.12;76.13;98704.78;4961661;28;20027;-66
2022/12/01 07:38:36;;;;;;;17.75;8.45;;;;;;;4.09;76.77;98704.06;4972588;28;20019;-66
2022/12/01 07:41:07;;;;;;;18.00;8.80;;;;;;;4.16;76.88;98700.34;4973519;28;20058;-65
2022/12/01 07:43:32;;;;;;;15.47;7.83;;;;;;;4.22;76.58;98708.78;4952189;28;20565;-66
2022/12/01 07:46:18;;;;;;;20.33;9.10;;;;;;;4.27;76.40;98698.25;4973326;28;20030;-66
2022/12/01 07:48:43;;;;;;;17.15;8.05;;;;;;;4.27;75.79;98699.09;4947741;28;20027;-67
2022/12/01 07:51:11;;;;;;;20.42;9.05;;;;;;;4.32;75.97;98701.50;4976371;28;20496;-66
2022/12/01 07:53:36;;;;;;;20.83;9.90;;;;;;;4.35;75.87;98706.59;4954275;28;20035;-65
2022/12/01 07:56:02;;;;;;;19.00;8.95;;;;;;;4.34;75.40;98704.91;4966110;28;20023;-67
2022/12/01 07:58:27;;;;;;;18.13;8.73;;;;;;;4.40;75.90;98704.66;4970769;28;20466;-64
2022/12/01 08:00:53;;;;;;;19.25;8.75;;;;;;;4.44;75.87;98708.88;4931767;28;20053;-66
2022/12/01 08:03:18;;;;;;;19.95;9.00;;;;;;;4.47;75.29;98700.97;4972204;28;20038;-66
2022/12/01 08:05:44;;;;;;;19.92;8.65;;;;;;;4.49;74.86;98698.31;4955882;28;20023;-66
2022/12/01 08:08:09;;;;;;;17.88;7.57;;;;;;;4.52;75.23;98691.25;4973235;28;20027;-65
2022/12/01 08:10:35;;;;;;;16.40;8.18;;;;;;;4.59;74.98;98698.84;4960764;28;20356;-65
2022/12/01 08:13:00;;;;;;;20.90;9.50;;;;;;;4.54;74.18;98691.19;4980154;28;20681;-65
2022/12/01 08:15:25;;;;;;;17.63;8.68;;;;;;;4.62;74.64;98701.31;4973462;28;20022;-65
2022/12/01 08:17:51;;;;;;;20.83;9.10;;;;;;;4.64;74.81;98702.09;4973662;28;20030;-64
2022/12/01 08:20:16;;;;;;;17.20;8.18;;;;;;;4.68;74.64;98708.88;4977070;28;20478;-63
2022/12/01 08:22:41;;;;;;;16.55;8.07;;;;;;;4.69;74.01;98701.03;4983722;28;20255;-68
2022/12/01 08:25:07;;;;;;;20.58;9.52;;;;;;;4.64;74.33;98702.09;4992208;28;20022;-67
2022/12/01 08:27:33;;;;;;;21.05;9.73;;;;;;;4.68;74.37;98706.28;4958844;28;20034;-68
2022/12/01 08:29:58;;;;;;;20.50;9.52;;;;;;;4.72;74.47;98702.69;4962763;28;20533;-68
2022/12/01 08:32:24;;;;;;;19.92;9.52;;;;;;;4.71;74.32;98698.38;4955164;28;20030;-68
2022/12/01 08:34:49;;;;;;;19.90;9.27;;;;;;;4.75;74.18;98702.56;4972596;28;20085;-68
2022/12/01 08:37:15;;;;;;;21.55;9.07;;;;;;;4.79;73.97;98701.56;4972105;28;20030;-68
2022/12/01 08:39:40;;;;;;;18.63;8.65;;;;;;;4.84;73.73;98702.22;4972726;28;20660;-68
2022/12/01 08:42:05;;;;;;;19.85;9.35;;;;;;;4.92;73.66;98702.78;4982474;28;20584;-68
2022/12/01 08:44:31;;;;;;;18.98;8.52;;;;;;;4.99;73.68;98706.00;4955363;28;20034;-69
2022/12/01 08:46:56;;;;;;;18.10;8.65;;;;;;;4.98;73.58;98705.13;4972134;28;20390;-65
2022/12/01 08:49:21;;;;;;;17.38;8.70;;;;;;;5.05;73.07;98697.09;4973385;28;20029;-66
2022/12/01 08:51:47;;;;;;;17.17;8.30;;;;;;;5.14;73.10;98697.59;4974974;28;20405;-65
2022/12/01 08:54:12;;;;;;;17.83;8.23;;;;;;;5.22;72.93;98705.09;4974906;28;20033;-66
2022/12/01 08:56:40;;;;;;;17.67;9.20;;;;;;;5.29;72.49;98700.50;4992533;28;20023;-66
2022/12/01 08:59:05;;;;;;;16.80;8.25;;;;;;;5.39;72.64;98712.25;4992490;28;20401;-65
2022/12/01 09:01:31;;;;;;;19.13;9.45;;;;;;;5.42;71.24;98712.13;4964180;28;20054;-66
2022/12/01 09:04:09;;;;;;;17.23;8.00;;;;;;;5.47;71.86;98716.25;4980453;28;20069;-64
2022/12/01 09:06:40;;;;;;;16.50;8.02;;;;;;;5.55;72.15;98707.28;4976376;28;20049;-63
2022/12/01 09:09:06;;;;;;;19.00;9.70;;;;;;;5.50;71.34;98714.41;4975227;28;20019;-63
2022/12/01 09:11:31;;;;;;;22.30;10.00;;;;;;;5.40;71.07;98713.94;4952987;28;20054;-64
2022/12/01 09:13:57;;;;;;;19.60;9.77;;;;;;;5.38;71.29;98714.00;4985260;28;20023;-64
2022/12/01 09:16:23;;;;;;;17.45;8.63;;;;;;;5.44;71.31;98726.78;4958941;28;20022;-63
2022/12/01 09:18:48;;;;;;;19.05;8.30;;;;;;;5.55;71.56;98725.50;4992137;28;20035;-63
2022/12/01 09:21:19;;;;;;;18.00;8.45;;;;;;;5.60;71.49;98720.94;4992314;28;20486;-64
2022/12/01 09:23:44;;;;;;;18.02;8.27;;;;;;;5.62;70.88;98719.16;4961584;28;20458;-65
2022/12/01 09:26:10;;;;;;;20.15;8.98;;;;;;;5.63;70.32;98721.66;4974693;28;20021;-65
2022/12/01 09:28:35;;;;;;;18.23;8.77;;;;;;;5.65;70.00;98719.03;4992193;28;20493;-66
2022/12/01 09:31:05;;;;;;;19.45;9.38;;;;;;;5.66;70.49;98715.50;4992246;28;20026;-65
2022/12/01 09:33:30;;;;;;;18.98;9.73;;;;;;;5.60;70.08;98721.78;4948961;28;20023;-66
2022/12/01 09:35:59;;;;;;;18.90;9.18;;;;;;;5.70;70.30;98717.06;4980077;28;20031;-64
2022/12/01 09:38:25;;;;;;;22.75;10.35;;;;;;;5.67;69.62;98717.19;4954603;28;20030;-65
2022/12/01 09:40:50;;;;;;;18.63;9.63;;;;;;;5.82;70.17;98721.78;4973395;28;20023;-65
2022/12/01 09:43:18;;;;;;;17.55;9.00;;;;;;;5.85;69.76;98720.78;4970331;28;20033;-65
2022/12/01 09:45:47;;;;;;;19.60;9.90;;;;;;;5.83;69.12;98713.06;4941660;28;20138;-65
2022/12/01 09:48:25;;;;;;;18.45;9.02;;;;;;;5.86;69.26;98710.34;4974706;28;20023;-66
2022/12/01 09:50:51;;;;;;;21.05;9.75;;;;;;;5.82;69.35;98711.38;4959175;28;20022;-66
2022/12/01 09:53:19;;;;;;;19.27;9.35;;;;;;;5.88;69.29;98705.91;4991889;28;20486;-64
2022/12/01 09:55:45;;;;;;;19.27;9.20;;;;;;;5.98;68.92;98702.94;4946791;28;20074;-67
2022/12/01 09:58:21;;;;;;;17.83;9.20;;;;;;;6.06;69.11;98709.53;4974408;28;20022;-66
2022/12/01 10:00:47;;;;;;;18.30;9.57;;;;;;;6.15;68.40;98698.72;4959596;28;20110;-66
2022/12/01 10:03:52;;;;;;;18.67;9.93;;;;;;;6.27;68.14;98699.13;4974858;28;20031;-65
2022/12/01 10:06:20;;;;;;;18.08;8.57;;;;;;;6.35;67.79;98697.00;4962109;28;20027;-65
2022/12/01 10:09:16;;;;;;;18.67;8.88;;;;;;;6.42;66.82;98685.41;4954957;28;20027;-63
2022/12/01 10:11:41;;;;;;;16.10;8.65;;;;;;;6.47;66.82;98686.06;4971491;28;20095;-63
2022/12/01 10:14:27;;;;;;;16.40;8.05;;;;;;;6.59;66.88;98687.28;4971289;28;20022;-65
2022/12/01 10:17:06;;;;;;;18.40;8.70;;;;;;;6.67;66.86;98677.34;4960001;28;20558;-65
2022/12/01 10:19:58;;;;;;;20.70;9.88;;;;;;;6.77;65.89;98677.78;4960673;28;20445;-63
2022/12/01 10:22:31;;;;;;;18.02;8.70;;;;;;;6.85;65.63;98686.09;4982743;28;20451;-64
2022/12/01 10:25:23;;;;;;;16.27;8.55;;;;;;;6.92;65.31;98671.88;4961714;28;20026;-64
2022/12/01 10:28:10;;;;;;;17.23;8.63;;;;;;;7.05;65.50;98667.75;4974410;28;20042;-64
2022/12/01 10:30:46;;;;;;;16.88;8.75;;;;;;;7.13;64.36;98659.59;4995113;28;20077;-65
2022/12/01 10:33:25;;;;;;;19.85;10.43;;;;;;;7.09;63.52;98660.66;4954991;28;20026;-64
2022/12/01 10:35:51;;;;;;;18.90;8.55;;;;;;;7.13;63.82;98659.59;4984636;28;20101;-63
2022/12/01 10:38:26;;;;;;;20.17;9.40;;;;;;;7.12;63.94;98655.25;4977873;28;20030;-64
2022/12/01 10:40:52;;;;;;;17.80;9.50;;;;;;;7.19;63.47;98655.81;4977693;28;20102;-63
2022/12/01 10:43:17;;;;;;;19.65;9.32;;;;;;;7.29;63.99;98651.84;4958181;28;20026;-63
2022/12/01 10:45:43;;;;;;;15.57;8.32;;;;;;;7.37;63.75;98644.50;4962533;28;20471;-63
2022/12/01 10:48:16;;;;;;;15.52;8.07;;;;;;;7.50;63.14;98647.34;4977600;28;20109;-64
2022/12/01 10:50:42;;;;;;;16.80;8.23;;;;;;;7.64;62.69;98647.53;4994765;28;20018;-63
2022/12/01 10:53:27;;;;;;;17.95;8.23;;;;;;;7.73;63.28;98649.69;4994558;28;20030;-63
2022/12/01 10:56:21;;;;;;;18.48;8.05;;;;;;;7.75;62.53;98642.63;4951237;28;20390;-63
2022/12/01 10:58:52;;;;;;;16.92;8.13;;;;;;;7.85;61.96;98645.63;4986386;28;20080;-64
2022/12/01 11:01:30;;;;;;;16.83;8.50;;;;;;;7.94;62.08;98646.91;4977603;28;20081;-63
2022/12/01 11:03:55;;;;;;;18.10;9.25;;;;;;;7.97;62.05;98644.97;4961627;28;20032;-64
2022/12/01 11:06:25;;;;;;;17.58;8.82;;;;;;;8.08;60.91;98641.81;4978338;28;20031;-63
2022/12/01 11:08:56;;;;;;;16.58;8.55;;;;;;;8.25;60.54;98633.94;4957573;28;20038;-62
2022/12/01 11:11:40;;;;;;;17.70;8.65;;;;;;;8.53;60.35;98637.75;4957968;28;20030;-62
2022/12/01 11:14:15;;;;;;;13.95;8.05;;;;;;;8.61;60.22;98639.97;4974987;28;20026;-63
2022/12/01 11:16:45;;;;;;;17.75;8.95;;;;;;;8.62;59.27;98641.66;4948626;28;20026;-63
2022/12/01 11:19:32;;;;;;;17.25;8.43;;;;;;;8.74;58.82;98636.63;4954653;28;20053;-63
2022/12/01 11:21:59;;;;;;;15.32;8.00;;;;;;;8.78;58.82;98630.28;4955465;29;20038;-64
2022/12/01 11:24:41;;;;;;;12.23;5.90;;;;;;;10.88;72.10;98632.88;4938081;29;20038;-63
2022/12/01 11:27:22;;;;;;;16.33;8.25;;;;;;;12.77;57.23;98623.75;4968564;28;20030;-63
2022/12/01 11:29:53;;;;;;;17.77;9.63;;;;;;;12.25;49.29;98624.75;4972705;28;20477;-65
2022/12/01 11:32:21;;;;;;;18.40;9.87;;;;;;;11.47;49.95;98620.31;4973326;28;20035;-65
2022/12/01 11:34:52;;;;;;;19.65;10.15;;;;;;;10.98;51.75;98622.59;4974224;28;20498;-64
2022/12/01 11:37:19;;;;;;;20.20;10.10;;;;;;;10.41;53.11;98615.66;4955220;28;20019;-65
2022/12/01 11:39:44;;;;;;;19.52;10.05;;;;;;;10.13;54.12;98619.94;4952428;28;20398;-64
2022/12/01 11:42:13;;;;;;;18.38;10.32;;;;;;;9.92;55.05;98622.06;4955958;28;20022;-65
2022/12/01 11:44:38;;;;;;;18.08;10.10;;;;;;;9.73;55.21;98619.66;4974101;28;20034;-64
2022/12/01 11:47:15;;;;;;;17.33;9.40;;;;;;;9.63;55.99;98621.13;4973964;28;20398;-65
2022/12/01 11:49:42;;;;;;;18.00;9.07;;;;;;;9.57;56.54;98624.13;4958698;28;20015;-65
2022/12/01 11:52:26;;;;;;;17.80;8.75;;;;;;;9.54;55.89;98616.44;4985491;28;20026;-65
2022/12/01 11:54:55;;;;;;;17.98;9.52;;;;;;;9.56;56.11;98614.56;4961351;28;20052;-65
2022/12/01 11:57:20;;;;;;;16.55;8.65;;;;;;;9.82;55.23;98610.44;4993150;28;20022;-65
2022/12/01 11:59:46;;;;;;;17.55;9.57;;;;;;;10.17;54.47;98610.94;4962791;28;20027;-64
2022/12/01 12:02:33;;;;;;;17.17;9.27;;;;;;;10.48;53.62;98608.28;4982124;28;20015;-64
2022/12/01 12:05:20;;;;;;;19.75;10.10;;;;;;;10.47;53.19;98611.84;4947049;28;20030;-65
2022/12/01 12:08:08;;;;;;;16.33;8.50;;;;;;;10.74;53.16;98598.78;4982509;28;20038;-63
2022/12/01 12:10:59;;;;;;;16.35;8.43;;;;;;;11.02;53.27;98609.22;4974061;28;20023;-64
2022/12/01 12:13:30;;;;;;;17.38;8.95;;;;;;;10.93;52.42;98601.91;4973650;28;20038;-63
2022/12/01 12:15:55;;;;;;;17.95;9.13;;;;;;;10.91;52.18;98601.19;4973652;28;20462;-64
2022/12/01 12:18:44;;;;;;;16.85;9.63;;;;;;;10.92;53.09;98597.63;4972456;28;20023;-63
2022/12/01 12:21:27;;;;;;;16.17;8.40;;;;;;;11.06;53.27;98589.69;4969107;28;20034;-64
2022/12/01 12:24:11;;;;;;;15.93;8.50;;;;;;;11.14;52.57;98589.19;4972160;28;20065;-65
2022/12/01 12:26:49;;;;;;;15.60;8.55;;;;;;;11.25;52.34;98586.72;4973601;28;20022;-65
2022/12/01 12:29:48;;;;;;;17.13;8.60;;;;;;;11.12;52.29;98584.06;4967608;28;20027;-64
2022/12/01 12:32:35;;;;;;;17.75;9.45;;;;;;;11.01;52.78;98585.66;4959818;28;20520;-64
2022/12/01 12:35:00;;;;;;;20.10;9.35;;;;;;;10.89;53.09;98571.56;4953907;29;20567;-65
2022/12/01 12:37:53;;;;;;;19.65;10.02;;;;;;;10.79;52.75;98570.47;4970528;28;20038;-64
2022/12/01 12:40:21;;;;;;;20.33;9.43;;;;;;;10.64;52.70;98572.28;4955533;28;20085;-63
2022/12/01 12:42:52;;;;;;;19.75;10.32;;;;;;;10.56;53.57;98570.13;4980508;28;20030;-64
2022/12/01 12:45:54;;;;;;;18.80;9.68;;;;;;;10.46;53.60;98566.41;4987330;28;20379;-65
2022/12/01 12:48:23;;;;;;;;;;;;;;;10.43;54.20;98569.22;4993046;28;20026;-63
2022/12/01 12:51:10;;;;;;;18.27;9.45;;;;;;;10.30;54.14;98568.31;4961761;28;20329;-64
2022/12/01 12:53:42;;;;;;;19.80;9.98;;;;;;;10.24;54.67;98574.72;4979717;28;20026;-64
2022/12/01 12:56:09;;;;;;;17.13;9.30;;;;;;;10.21;54.44;98562.63;4939707;28;20046;-64
2022/12/01 12:58:40;;;;;;;17.77;9.90;;;;;;;10.10;54.18;98567.69;4971778;28;20026;-65
2022/12/01 13:01:40;;;;;;;18.60;9.88;;;;;;;10.11;54.96;98564.13;4956306;28;20050;-64
2022/12/01 13:04:21;;;;;;;17.60;9.48;;;;;;;10.14;55.69;98557.88;4949534;28;20053;-64
2022/12/01 13:06:51;;;;;;;19.08;8.80;;;;;;;10.09;54.72;98563.41;4951803;28;20479;-64
2022/12/01 13:09:22;;;;;;;15.90;8.93;;;;;;;10.09;56.03;98566.03;4972115;28;20022;-66
2022/12/01 13:11:55;;;;;;;18.15;9.90;;;;;;;10.04;55.23;98564.59;4925052;28;20027;-64
2022/12/01 13:14:45;;;;;;;17.02;8.95;;;;;;;9.95;55.36;98566.84;4953842;28;20093;-64
2022/12/01 13:17:19;;;;;;;17.17;8.93;;;;;;;9.89;55.63;98563.75;4927774;28;20041;-63
2022/12/01 13:19:45;;;;;;;15.00;7.90;;;;;;;9.92;57.42;98560.97;4958457;28;20033;-64
2022/12/01 13:22:11;;;;;;;16.77;8.77;;;;;;;9.92;56.66;98547.84;4972409;28;20026;-65
2022/12/01 13:24:36;;;;;;;19.90;10.52;;;;;;;9.90;56.93;98554.97;4944824;28;20109;-62
2022/12/01 13:27:22;;;;;;;22.95;11.98;;;;;;;9.86;58.40;98543.81;4971180;28;20034;-63
2022/12/01 13:29:49;;;;;;;41.05;18.92;;;;;;;9.86;58.27;98551.69;4954008;28;20073;-64
2022/12/01 13:32:35;;;;;;;75.97;31.98;;;;;;;9.83;57.84;98548.41;4957212;28;20050;-65
2022/12/01 13:35:02;;;;;;;80.40;33.63;;;;;;;9.79;58.01;98547.75;4952368;28;20018;-65
2022/12/01 13:37:29;;;;;;;61.10;29.38;;;;;;;9.75;58.42;98546.25;4968060;28;20117;-64
2022/12/01 13:39:55;;;;;;;21.58;11.65;;;;;;;9.67;58.88;98546.72;4958493;28;20105;-65
2022/12/01 13:42:24;;;;;;;15.63;8.52;;;;;;;9.63;59.57;98547.81;4973628;28;20029;-67
2022/12/01 13:44:56;;;;;;;19.15;8.05;;;;;;;9.61;59.72;98549.69;4961331;28;20037;-63
2022/12/01 13:47:51;;;;;;;13.60;7.22;;;;;;;9.55;59.92;98549.19;4953323;28;20023;-62
2022/12/01 13:50:34;;;;;;;11.68;5.70;;;;;;;12.15;67.80;98543.03;4980522;28;20030;-62
2022/12/01 13:53:19;;;;;;;13.40;6.70;;;;;;;13.54;59.03;98535.56;4975958;28;20390;-60
2022/12/01 13:55:56;;;;;;;15.27;7.47;;;;;;;13.95;53.92;98528.09;4985186;28;20593;-62
2022/12/01 13:58:24;;;;;;;20.25;12.43;;;;;;;12.57;48.26;98525.16;4978387;28;20113;-65
2022/12/01 14:00:50;;;;;;;24.65;13.95;;;;;;;11.78;49.80;98529.75;4978334;28;20074;-65
2022/12/01 14:03:15;;;;;;;20.90;12.95;;;;;;;11.13;51.17;98530.59;4978011;28;20471;-64
2022/12/01 14:05:40;;;;;;;30.88;18.65;;;;;;;10.72;52.14;98535.91;4995577;28;20041;-64
2022/12/01 14:08:28;;;;;;;45.95;26.13;;;;;;;10.37;52.80;98538.13;4981940;28;20070;-64
2022/12/01 14:11:05;;;;;;;31.42;17.50;;;;;;;10.07;53.78;98536.44;4958465;28;20084;-64
2022/12/01 14:13:41;;;;;;;32.85;15.75;;;;;;;9.84;53.94;98534.34;4958593;28;20496;-64
2022/12/01 14:16:06;;;;;;;21.83;12.77;;;;;;;9.65;54.85;98538.09;4960291;28;20065;-65
2022/12/01 14:18:34;;;;;;;18.20;10.00;;;;;;;9.44;55.47;98536.75;4966286;28;20493;-65
2022/12/01 14:21:01;;;;;;;26.50;13.95;;;;;;;9.28;56.14;98536.78;4961778;28;20037;-65
2022/12/01 14:23:32;;;;;;;18.15;9.90;;;;;;;9.13;56.58;98538.53;4977846;28;20397;-64
2022/12/01 14:25:57;;;;;;;18.30;9.27;;;;;;;8.99;57.02;98541.09;4995397;28;20085;-65
2022/12/01 14:28:54;;;;;;;18.52;9.73;;;;;;;8.85;57.84;98543.66;4987105;28;20035;-64
2022/12/01 14:31:20;;;;;;;21.63;10.82;;;;;;;8.73;58.48;98545.16;4983114;28;20035;-65
2022/12/01 14:33:58;;;;;;;19.85;10.63;;;;;;;8.60;58.13;98544.13;4993477;28;20034;-66
2022/12/01 14:36:23;;;;;;;18.90;9.90;;;;;;;8.50;58.67;98538.59;4978545;28;20022;-66
2022/12/01 14:38:51;;;;;;;24.38;13.85;;;;;;;8.41;59.45;98542.53;4991453;28;20149;-64
2022/12/01 14:41:22;;;;;;;28.10;15.35;;;;;;;8.30;59.81;98543.09;4980831;28;20039;-64
2022/12/01 14:44:04;;;;;;;47.80;24.98;;;;;;;8.26;60.14;98543.34;4961373;28;20026;-64
2022/12/01 14:46:39;;;;;;;79.50;42.17;;;;;;;8.17;60.54;98542.06;4965494;28;20026;-65
2022/12/01 14:49:05;;;;;;;69.93;36.33;;;;;;;8.12;60.72;98533.63;4959790;28;20466;-65
2022/12/01 14:51:31;;;;;;;58.15;31.63;;;;;;;8.07;60.15;98527.81;4945901;28;20030;-64
2022/12/01 14:53:56;;;;;;;36.05;20.13;;;;;;;8.04;60.54;98538.41;4953382;28;20033;-64
2022/12/01 14:56:22;;;;;;;22.17;12.43;;;;;;;8.00;60.81;98535.13;4977305;28;20026;-65
2022/12/01 14:58:58;;;;;;;20.25;10.48;;;;;;;7.94;61.35;98534.59;4961217;28;20041;-65
2022/12/01 15:01:34;;;;;;;17.58;9.82;;;;;;;7.92;61.79;98536.47;4950023;28;20035;-65
2022/12/01 15:04:01;;;;;;;16.70;8.75;;;;;;;7.87;61.84;98544.50;4950819;28;20019;-64
2022/12/01 15:06:27;;;;;;;16.85;9.02;;;;;;;7.82;62.43;98542.16;4957889;28;20434;-62
2022/12/01 15:09:09;;;;;;;18.77;8.77;;;;;;;7.77;62.78;98549.38;4957655;28;20110;-63
2022/12/01 15:11:35;;;;;;;;;;;;;;;7.70;62.96;98553.22;4974988;28;20022;-64
2022/12/01 15:14:00;;;;;;;14.20;7.20;;;;;;;7.65;62.57;98544.78;4969878;28;19960;-64
2022/12/01 15:16:28;;;;;;;15.98;7.63;;;;;;;7.56;62.83;98534.81;4978761;28;20027;-64
2022/12/01 15:18:53;;;;;;;18.30;8.43;;;;;;;7.55;63.24;98551.41;4957367;28;20030;-64
2022/12/01 15:21:24;;;;;;;18.40;9.38;;;;;;;7.51;63.84;98552.47;4972783;28;20536;-65
2022/12/01 15:23:59;;;;;;;19.27;9.05;;;;;;;7.45;63.67;98547.56;4937919;28;20114;-65
2022/12/01 15:26:27;;;;;;;20.10;10.45;;;;;;;7.35;64.92;98549.78;4985971;28;20045;-65
2022/12/01 15:29:19;;;;;;;24.95;12.50;;;;;;;7.24;65.55;98541.66;4960918;28;20398;-64
2022/12/01 15:31:50;;;;;;;29.98;15.57;;;;;;;7.13;65.59;98544.81;4976489;28;20022;-65
2022/12/01 15:34:34;;;;;;;34.55;16.25;;;;;;;7.06;66.69;98559.06;4948699;28;20029;-64
2022/12/01 15:37:02;;;;;;;22.00;12.80;;;;;;;6.92;66.98;98553.66;4946163;28;20061;-65
2022/12/01 15:39:33;;;;;;;21.08;11.20;;;;;;;6.90;67.27;98557.19;4960650;28;20624;-64
2022/12/01 15:41:58;;;;;;;22.57;10.93;;;;;;;6.88;67.86;98553.81;4960634;28;20033;-64
2022/12/01 15:44:34;;;;;;;20.27;10.23;;;;;;;6.86;67.84;98560.84;4947977;28;20285;-65
2022/12/01 15:47:55;;;;;;;20.40;11.77;;;;;;;6.87;67.58;98559.94;4952861;28;20368;-64
2022/12/01 15:50:32;;;;;;;23.80;14.15;;;;;;;6.87;68.17;98552.13;4914445;29;20128;-65
2022/12/01 15:53:00;;;;;;;23.88;13.55;;;;;;;6.85;68.23;98556.56;4908969;29;20037;-65
2022/12/01 15:55:35;;;;;;;22.92;14.25;;;;;;;6.85;68.19;98556.56;4887244;29;20040;-65
2022/12/01 15:58:01;;;;;;;25.83;16.73;;;;;;;6.85;67.81;98561.78;4907021;29;20036;-64
2022/12/01 16:00:26;;;;;;;22.48;13.18;;;;;;;6.83;67.76;98553.19;4914333;29;20070;-65
2022/12/01 16:02:55;;;;;;;24.33;13.88;;;;;;;6.83;67.90;98558.41;4898539;29;20042;-63
2022/12/01 16:05:25;;;;;;;24.98;14.55;;;;;;;6.84;68.48;98557.47;4894720;29;20072;-63
2022/12/01 16:07:51;;;;;;;25.17;15.48;;;;;;;6.84;68.00;98565.28;4866968;29;20511;-63
2022/12/01 16:10:42;;;;;;;22.27;12.68;;;;;;;6.86;68.54;98558.25;4914216;29;20028;-65
2022/12/01 16:13:35;;;;;;;19.13;11.50;;;;;;;6.86;68.49;98560.84;4896494;29;20123;-65
2022/12/01 16:16:21;;;;;;;20.10;12.50;;;;;;;6.83;68.24;98561.00;4890609;29;20069;-64
2022/12/01 16:18:55;;;;;;;20.95;10.90;;;;;;;6.82;68.56;98561.09;4894056;29;20130;-64
2022/12/01 16:21:20;;;;;;;19.00;10.50;;;;;;;6.81;68.67;98560.25;4914184;29;20090;-64
2022/12/01 16:23:46;;;;;;;19.85;10.95;;;;;;;6.82;69.14;98559.31;4929887;28;20034;-64
2022/12/01 16:26:12;;;;;;;17.75;10.65;;;;;;;6.80;68.33;98555.09;4973650;28;20027;-64
2022/12/01 16:28:38;;;;;;;21.83;10.05;;;;;;;6.80;69.26;98555.09;4972370;28;20022;-65
2022/12/01 16:31:04;;;;;;;15.98;9.43;;;;;;;6.81;69.63;98552.44;4977043;28;20068;-65
2022/12/01 16:33:29;;;;;;;16.00;8.73;;;;;;;6.80;68.88;98558.53;4984523;28;20098;-63
2022/12/01 16:35:54;;;;;;;16.60;8.80;;;;;;;6.82;69.07;98550.66;4959531;28;20030;-64
2022/12/01 16:38:22;;;;;;;14.80;7.57;;;;;;;6.81;69.45;98552.44;4959293;28;20547;-64
2022/12/01 16:40:54;;;;;;;17.15;8.32;;;;;;;6.80;69.07;98545.50;4975591;28;20023;-64
2022/12/01 16:43:23;;;;;;;14.77;8.23;;;;;;;6.82;68.51;98558.47;4960097;28;20400;-64
2022/12/01 16:45:51;;;;;;;14.27;7.70;;;;;;;6.81;68.11;98556.78;4987318;28;20486;-64
2022/12/01 16:48:19;;;;;;;15.85;7.63;;;;;;;6.78;67.34;98557.78;4975455;28;20397;-64
2022/12/01 16:50:47;;;;;;;15.65;8.63;;;;;;;6.73;67.28;98551.94;4975617;28;20030;-65
2022/12/01 16:53:12;;;;;;;14.88;8.05;;;;;;;6.75;67.34;98557.09;4992133;28;20544;-64
2022/12/01 16:55:58;;;;;;;14.20;7.63;;;;;;;6.74;67.64;98561.44;4992647;28;20053;-65
2022/12/01 16:58:23;;;;;;;16.95;9.00;;;;;;;6.74;68.42;98560.59;4975142;28;20034;-63
2022/12/01 17:00:51;;;;;;;16.95;8.98;;;;;;;6.74;68.64;98566.66;4985316;28;20039;-65
2022/12/01 17:03:17;;;;;;;17.55;8.85;;;;;;;6.73;67.63;98559.75;4986925;28;20397;-65
2022/12/01 17:05:42;;;;;;;14.95;9.00;;;;;;;6.72;68.66;98565.06;4975172;28;20026;-64
2022/12/01 17:08:08;;;;;;;17.50;9.45;;;;;;;6.72;69.25;98573.72;4992381;28;20030;-64
2022/12/01 17:10:33;;;;;;;18.52;9.63;;;;;;;6.72;68.22;98571.09;4992521;28;20466;-64
2022/12/01 17:12:59;;;;;;;16.92;9.50;;;;;;;6.71;68.08;98561.59;4992173;28;20030;-65
2022/12/01 17:15:24;;;;;;;15.95;8.95;;;;;;;6.71;69.07;98561.59;4965078;28;20066;-64
2022/12/01 17:17:50;;;;;;;17.42;9.13;;;;;;;6.70;68.83;98565.09;4980772;28;20039;-64
2022/12/01 17:20:16;;;;;;;15.15;7.70;;;;;;;6.68;68.71;98566.13;4971774;28;20031;-64
2022/12/01 17:22:41;;;;;;;15.65;8.27;;;;;;;6.73;68.87;98569.34;4971532;28;20023;-65
2022/12/01 17:25:08;;;;;;;16.63;8.00;;;;;;;6.70;68.86;98575.53;4984058;28;20406;-65
2022/12/01 17:27:34;;;;;;;16.27;8.40;;;;;;;6.69;69.21;98570.41;4976977;28;20075;-64
2022/12/01 17:29:59;;;;;;;17.92;9.13;;;;;;;6.70;69.55;98570.31;4971083;28;20023;-64
2022/12/01 17:32:25;;;;;;;15.57;8.43;;;;;;;6.70;68.37;98570.31;4984771;28;20023;-65
2022/12/01 17:34:51;;;;;;;15.77;8.68;;;;;;;6.69;68.75;98568.63;4976612;28;20031;-65
2022/12/01 17:37:16;;;;;;;17.63;9.45;;;;;;;6.69;69.23;98566.03;4976788;28;20029;-64
2022/12/01 17:39:41;;;;;;;15.48;8.38;;;;;;;6.69;69.69;98566.03;4976791;28;20023;-64
2022/12/01 17:42:07;;;;;;;18.13;8.73;;;;;;;6.68;69.02;98559.13;4975430;28;20434;-65
2022/12/01 17:44:32;;;;;;;14.80;7.50;;;;;;;6.68;69.63;98566.97;4972386;28;20328;-64
2022/12/01 17:46:57;;;;;;;16.88;7.10;;;;;;;6.68;68.94;98561.75;4987993;28;20022;-64
2022/12/01 17:49:23;;;;;;;13.85;7.38;;;;;;;6.69;69.38;98562.59;4996173;28;20479;-63
2022/12/01 17:51:48;;;;;;;13.90;7.30;;;;;;;6.67;69.57;98570.47;4996103;28;20028;-64
2022/12/01 17:54:14;;;;;;;15.35;8.30;;;;;;;6.66;69.39;98568.78;4976019;28;20456;-65
2022/12/01 17:56:39;;;;;;;14.20;7.35;;;;;;;6.65;69.30;98572.31;4978559;28;20033;-64
2022/12/01 17:59:04;;;;;;;13.48;6.53;;;;;;;6.65;69.82;98577.53;4976292;28;20034;-65
2022/12/01 18:01:30;;;;;;;12.63;6.78;;;;;;;6.61;69.84;98573.38;4974847;28;20027;-65
2022/12/01 18:03:56;;;;;;;13.82;7.30;;;;;;;6.60;70.88;98569.06;4974791;28;20022;-64
2022/12/01 18:06:22;;;;;;;21.48;11.18;;;;;;;6.57;71.45;98575.28;4974994;28;20121;-65
2022/12/01 18:08:47;;;;;;;20.70;11.15;;;;;;;6.56;70.92;98575.34;4976080;28;20038;-65
2022/12/01 18:11:14;;;;;;;18.33;10.75;;;;;;;6.55;71.66;98573.66;4974837;28;20027;-65
2022/12/01 18:13:45;;;;;;;18.95;10.57;;;;;;;6.52;71.77;98573.78;4975757;28;20141;-65
2022/12/01 18:16:14;;;;;;;18.48;11.38;;;;;;;6.48;72.31;98575.69;4972610;28;20027;-65
2022/12/01 18:18:40;;;;;;;15.25;8.00;;;;;;;6.68;78.63;98581.75;4958916;28;20513;-64
2022/12/01 18:21:06;;;;;;;16.35;8.65;;;;;;;6.63;74.43;98579.34;4958405;28;20035;-64
2022/12/01 18:23:32;;;;;;;17.77;10.27;;;;;;;6.59;74.01;98583.00;4982392;28;20401;-65
2022/12/01 18:26:01;;;;;;;19.33;11.65;;;;;;;6.53;74.40;98578.91;4987355;28;20030;-64
2022/12/01 18:28:27;;;;;;;14.85;8.25;;;;;;;6.53;74.35;98583.28;4961740;28;20053;-64
2022/12/01 18:30:52;;;;;;;15.02;7.90;;;;;;;6.51;75.12;98590.34;4984605;28;20491;-64
2022/12/01 18:33:19;;;;;;;15.00;8.55;;;;;;;6.45;74.66;98588.03;4980502;28;20151;-65
2022/12/01 18:35:45;;;;;;;15.48;9.00;;;;;;;6.44;74.88;98594.16;4975670;28;20026;-64
2022/12/01 18:38:10;;;;;;;16.75;7.80;;;;;;;6.41;75.00;98595.97;4974812;28;20073;-64
2022/12/01 18:40:36;;;;;;;14.60;7.28;;;;;;;6.39;75.27;98594.34;4975175;28;20031;-64
2022/12/01 18:43:02;;;;;;;15.18;7.10;;;;;;;6.35;75.02;98591.03;4974266;28;20102;-64
2022/12/01 18:45:27;;;;;;;16.05;7.30;;;;;;;6.34;75.40;98588.50;4969233;28;20034;-64
2022/12/01 18:47:53;;;;;;;14.23;7.38;;;;;;;6.31;75.45;98594.69;4973984;28;20026;-64
2022/12/01 18:50:18;;;;;;;14.75;6.88;;;;;;;6.30;75.85;98593.03;4974088;28;20034;-64
2022/12/01 18:52:43;;;;;;;15.25;7.68;;;;;;;6.29;75.98;98588.69;4974232;28;20026;-65
2022/12/01 18:55:09;;;;;;;15.77;7.90;;;;;;;6.28;75.62;98586.19;4988972;28;20054;-64
2022/12/01 18:57:35;;;;;;;15.23;7.22;;;;;;;6.25;75.33;98584.56;4965254;28;20402;-64
2022/12/01 19:00:01;;;;;;;15.40;6.65;;;;;;;6.23;75.56;98583.78;4983010;28;20070;-64
2022/12/01 19:02:26;;;;;;;15.60;7.50;;;;;;;6.22;75.19;98578.63;4977614;28;20026;-64
2022/12/01 19:04:52;;;;;;;16.08;8.15;;;;;;;6.18;76.05;98581.38;4974656;28;20033;-64
2022/12/01 19:07:17;;;;;;;14.05;6.70;;;;;;;6.17;76.38;98581.44;4974925;28;20025;-64